createdAt,value
2022-10-18T00:00:12.486Z,0
2022-10-18T00:02:14.138Z,0
2022-10-18T00:04:15.137Z,0
2022-10-18T00:06:17.055Z,0
2022-10-18T00:08:18.483Z,0
2022-10-18T00:10:20.242Z,0
2022-10-18T00:12:21.141Z,0
2022-10-18T00:14:22.291Z,0
2022-10-18T00:16:23.302Z,0
2022-10-18T00:18:24.741Z,0
2022-10-18T00:20:26.020Z,0
2022-10-18T00:22:27.339Z,0
2022-10-18T00:24:28.821Z,0
2022-10-18T00:26:30.094Z,0
2022-10-18T00:28:31.802Z,0
2022-10-18T00:30:33.538Z,0
2022-10-18T00:32:35.216Z,0
2022-10-18T00:34:36.271Z,0
2022-10-18T00:36:37.942Z,0
2022-10-18T00:38:39.834Z,0
2022-10-18T00:40:40.964Z,0
2022-10-18T00:42:42.658Z,0
2022-10-18T00:44:43.626Z,0
2022-10-18T00:46:45.328Z,0
2022-10-18T00:48:46.324Z,0
2022-10-18T00:50:47.975Z,0
2022-10-18T00:52:49.616Z,0
2022-10-18T00:54:51.151Z,0
2022-10-18T00:56:52.415Z,0
2022-10-18T00:58:53.957Z,0
2022-10-18T01:00:54.904Z,0
2022-10-18T01:02:56.508Z,0
2022-10-18T01:04:57.773Z,0
2022-10-18T01:06:59.515Z,0
2022-10-18T01:09:00.694Z,0
2022-10-18T01:11:02.081Z,0
2022-10-18T01:13:03.372Z,0
2022-10-18T01:15:04.901Z,0
2022-10-18T01:17:06.819Z,0
2022-10-18T01:19:08.488Z,0
2022-10-18T01:19:52.321Z,0
2022-10-18T01:21:53.409Z,0
2022-10-18T01:25:56.189Z,0
2022-10-18T01:27:57.856Z,0
2022-10-18T01:29:59.323Z,0
2022-10-18T01:32:01.039Z,0
2022-10-18T01:36:04.216Z,0
2022-10-18T01:38:05.379Z,0
2022-10-18T01:40:06.606Z,0
2022-10-18T01:42:07.662Z,0
2022-10-18T01:44:09.458Z,0
2022-10-18T01:46:11.268Z,0
2022-10-18T01:48:12.633Z,0
2022-10-18T01:50:13.978Z,0
2022-10-18T01:54:16.759Z,0
2022-10-18T01:56:18.015Z,0
2022-10-18T01:58:18.921Z,0
2022-10-18T02:00:19.940Z,0
2022-10-18T02:02:21.494Z,0
2022-10-18T02:04:23.038Z,0
2022-10-18T02:08:26.195Z,0
2022-10-18T02:10:27.325Z,0
2022-10-18T02:12:28.368Z,0
2022-10-18T02:14:29.514Z,0
2022-10-18T02:16:31.347Z,0
2022-10-18T02:18:32.998Z,0
2022-10-18T02:20:34.380Z,0
2022-10-18T02:22:36.158Z,0
2022-10-18T02:24:37.706Z,0
2022-10-18T02:26:39.052Z,0
2022-10-18T02:28:40.562Z,0
2022-10-18T02:30:41.567Z,0
2022-10-18T02:32:42.812Z,0
2022-10-18T02:34:44.570Z,0
2022-10-18T02:36:54.770Z,0
2022-10-18T02:38:47.238Z,0
2022-10-18T02:40:48.577Z,0
2022-10-18T02:42:50.052Z,0
2022-10-18T02:44:51.430Z,0
2022-10-18T02:46:52.911Z,0
2022-10-18T02:48:54.314Z,0
2022-10-18T02:50:55.626Z,0
2022-10-18T02:52:57.027Z,0
2022-10-18T02:54:58.181Z,0
2022-10-18T02:56:59.160Z,0
2022-10-18T02:59:00.334Z,0
2022-10-18T03:01:01.973Z,0
2022-10-18T03:03:03.831Z,0
2022-10-18T03:05:04.781Z,0
2022-10-18T03:07:06.516Z,0
2022-10-18T03:09:07.594Z,0
2022-10-18T03:11:09.248Z,0
2022-10-18T03:13:10.479Z,0
2022-10-18T03:15:12.138Z,0
2022-10-18T03:17:13.427Z,0
2022-10-18T03:19:14.928Z,0
2022-10-18T03:21:16.040Z,0
2022-10-18T03:23:17.314Z,0
2022-10-18T03:25:18.895Z,0
2022-10-18T03:27:20.266Z,0
2022-10-18T03:29:21.750Z,0
2022-10-18T03:31:23.096Z,0
2022-10-18T03:33:24.126Z,0
2022-10-18T03:35:25.350Z,0
2022-10-18T03:39:28.877Z,0
2022-10-18T03:41:29.890Z,0
2022-10-18T03:43:31.110Z,0
2022-10-18T03:45:32.634Z,0
2022-10-18T03:49:35.021Z,0
2022-10-18T03:51:36.428Z,0
2022-10-18T03:53:37.788Z,0
2022-10-18T03:55:39.057Z,0
2022-10-18T03:57:39.969Z,0
2022-10-18T04:01:42.562Z,0
2022-10-18T04:03:43.798Z,0
2022-10-18T04:05:45.158Z,0
2022-10-18T04:07:46.079Z,0
2022-10-18T04:11:49.352Z,0
2022-10-18T04:13:50.978Z,0
2022-10-18T04:15:52.465Z,0
2022-10-18T04:17:53.538Z,0
2022-10-18T04:21:56.708Z,0
2022-10-18T04:23:57.670Z,0
2022-10-18T04:25:59.099Z,0
2022-10-18T04:28:00.546Z,0
2022-10-18T04:30:01.985Z,0
2022-10-18T04:32:03.322Z,0
2022-10-18T04:34:05.156Z,0
2022-10-18T04:36:06.458Z,0
2022-10-18T04:38:07.567Z,0
2022-10-18T04:40:08.987Z,0
2022-10-18T04:42:10.184Z,0
2022-10-18T04:44:11.285Z,0
2022-10-18T04:46:13.003Z,0
2022-10-18T04:48:14.238Z,0
2022-10-18T04:50:15.712Z,0
2022-10-18T04:52:16.859Z,0
2022-10-18T04:54:18.095Z,0
2022-10-18T04:56:19.500Z,0
2022-10-18T04:58:20.598Z,0
2022-10-18T05:00:21.967Z,0
2022-10-18T05:02:23.638Z,0
2022-10-18T05:04:25.052Z,0
2022-10-18T05:06:26.211Z,0
2022-10-18T05:08:27.898Z,0
2022-10-18T05:10:29.169Z,0
2022-10-18T05:12:31.214Z,0
2022-10-18T05:14:31.868Z,0
2022-10-18T05:16:33.255Z,0
2022-10-18T05:18:34.554Z,0.14
2022-10-18T05:20:36.147Z,0
2022-10-18T05:22:37.113Z,0
2022-10-18T05:24:38.867Z,0
2022-10-18T05:26:39.895Z,0
2022-10-18T05:28:41.664Z,0
2022-10-18T05:30:43.040Z,0
2022-10-18T05:32:44.813Z,0
2022-10-18T05:34:45.767Z,0
2022-10-18T05:36:47.573Z,1.263
2022-10-18T05:38:48.540Z,1.544
2022-10-18T05:40:50.155Z,2.246
2022-10-18T05:42:51.423Z,0.702
2022-10-18T05:44:52.737Z,2.106
2022-10-18T05:46:54.249Z,1.263
2022-10-18T05:48:55.999Z,0
2022-10-18T05:50:57.861Z,0
2022-10-18T05:53:02.764Z,0
2022-10-18T05:55:00.926Z,0
2022-10-18T05:57:02.172Z,0
2022-10-18T05:59:03.467Z,0
2022-10-18T06:01:05.149Z,0
2022-10-18T06:03:06.776Z,0
2022-10-18T06:05:07.778Z,0
2022-10-18T06:07:08.950Z,0
2022-10-18T06:09:10.084Z,0
2022-10-18T06:13:12.563Z,0
2022-10-18T06:15:13.836Z,0
2022-10-18T06:17:15.551Z,0
2022-10-18T06:19:16.660Z,0.842
2022-10-18T06:21:17.898Z,0
2022-10-18T06:23:19.063Z,0
2022-10-18T06:25:20.298Z,0
2022-10-18T06:27:22.167Z,0
2022-10-18T06:29:23.832Z,0.421
2022-10-18T06:31:25.628Z,0
2022-10-18T06:33:26.538Z,0
2022-10-18T06:35:28.028Z,0.14
2022-10-18T06:37:29.833Z,0
2022-10-18T06:39:30.652Z,0
2022-10-18T06:41:32.355Z,0
2022-10-18T06:45:35.035Z,0
2022-10-18T06:47:36.293Z,0
2022-10-18T06:49:37.783Z,0
2022-10-18T06:51:39.550Z,0
2022-10-18T06:53:43.734Z,0
2022-10-18T06:55:41.925Z,0
2022-10-18T06:57:42.867Z,0
2022-10-18T06:59:44.079Z,0
2022-10-18T07:01:45.779Z,0
2022-10-18T07:03:47.511Z,0
2022-10-18T07:05:48.967Z,0
2022-10-18T07:07:52.862Z,0
2022-10-18T07:09:51.446Z,0
2022-10-18T07:11:53.225Z,0
2022-10-18T07:13:54.726Z,0
2022-10-18T07:17:58.170Z,0
2022-10-18T07:19:59.155Z,0
2022-10-18T07:22:00.678Z,0
2022-10-18T07:24:02.108Z,0
2022-10-18T07:26:03.237Z,0
2022-10-18T07:28:04.313Z,0
2022-10-18T07:30:05.496Z,0
2022-10-18T07:32:06.469Z,0
2022-10-18T07:36:09.370Z,0
2022-10-18T07:38:10.919Z,0
2022-10-18T07:40:11.811Z,0
2022-10-18T07:44:15.179Z,0
2022-10-18T07:46:16.375Z,2.386
2022-10-18T07:48:17.870Z,0
2022-10-18T07:50:18.992Z,0
2022-10-18T07:52:20.682Z,0.14
2022-10-18T07:56:23.580Z,0
2022-10-18T07:58:25.095Z,0
2022-10-18T08:00:26.225Z,0
2022-10-18T08:02:28.025Z,0
2022-10-18T08:04:29.329Z,0
2022-10-18T08:05:13.026Z,0
2022-10-18T08:07:14.851Z,0
2022-10-18T08:09:16.457Z,0
2022-10-18T08:11:18.196Z,0
2022-10-18T08:13:19.985Z,0
2022-10-18T08:15:20.890Z,0
2022-10-18T08:17:22.763Z,0
2022-10-18T08:21:25.365Z,0
2022-10-18T08:23:27.069Z,0.702
2022-10-18T08:25:28.356Z,0
2022-10-18T08:27:29.381Z,2.386
2022-10-18T08:29:32.085Z,0.702
2022-10-18T08:31:32.062Z,0.982
2022-10-18T08:33:32.983Z,3.79
2022-10-18T08:35:34.581Z,0.982
2022-10-18T08:37:35.660Z,3.088
2022-10-18T08:39:36.700Z,3.088
2022-10-18T08:41:38.113Z,3.65
2022-10-18T08:43:39.198Z,2.808
2022-10-18T08:45:42.893Z,4.071
2022-10-18T08:47:41.434Z,2.106
2022-10-18T08:49:46.456Z,4.071
2022-10-18T08:51:43.393Z,4.492
2022-10-18T08:53:44.260Z,4.352
2022-10-18T08:55:45.145Z,3.51
2022-10-18T08:57:46.698Z,1.825
2022-10-18T08:59:48.368Z,1.404
2022-10-18T09:03:51.215Z,0.561
2022-10-18T09:05:52.729Z,3.369
2022-10-18T09:07:53.936Z,0.702
2022-10-18T09:09:55.160Z,1.965
2022-10-18T09:11:57.974Z,0
2022-10-18T09:13:58.258Z,2.106
2022-10-18T09:15:59.375Z,2.808
2022-10-18T09:18:00.387Z,3.088
2022-10-18T09:20:01.434Z,3.369
2022-10-18T09:22:04.044Z,1.684
2022-10-18T09:24:04.436Z,2.808
2022-10-18T09:26:05.689Z,0.982
2022-10-18T09:28:07.444Z,3.088
2022-10-18T09:30:08.218Z,1.404
2022-10-18T09:32:09.784Z,2.527
2022-10-18T09:34:10.778Z,1.263
2022-10-18T09:36:11.768Z,2.948
2022-10-18T09:38:12.732Z,0.14
2022-10-18T09:40:15.212Z,3.931
2022-10-18T09:42:15.572Z,0.14
2022-10-18T09:44:16.948Z,0
2022-10-18T09:46:18.144Z,0
2022-10-18T09:48:19.286Z,0
2022-10-18T09:50:20.443Z,0
2022-10-18T09:52:21.901Z,0.28
2022-10-18T09:54:23.236Z,2.808
2022-10-18T09:56:25.017Z,3.51
2022-10-18T09:58:26.098Z,0.982
2022-10-18T10:00:27.007Z,1.404
2022-10-18T10:02:27.984Z,3.229
2022-10-18T10:04:30.253Z,2.246
2022-10-18T10:06:31.978Z,0
2022-10-18T10:08:33.738Z,3.088
2022-10-18T10:10:35.557Z,2.386
2022-10-18T10:12:37.039Z,1.684
2022-10-18T10:14:38.768Z,1.544
2022-10-18T10:16:40.363Z,4.071
2022-10-18T10:18:41.256Z,4.352
2022-10-18T10:20:43.604Z,2.386
2022-10-18T10:24:46.625Z,0
2022-10-18T10:26:47.742Z,1.263
2022-10-18T10:28:49.453Z,1.825
2022-10-18T10:30:50.547Z,2.808
2022-10-18T10:32:51.613Z,1.123
2022-10-18T10:34:53.221Z,3.229
2022-10-18T10:36:54.605Z,4.492
2022-10-18T10:38:55.557Z,2.527
2022-10-18T10:40:56.903Z,7.16
2022-10-18T10:43:04.198Z,3.229
2022-10-18T10:44:59.435Z,3.931
2022-10-18T10:47:01.162Z,3.369
2022-10-18T10:49:34.819Z,0.842
2022-10-18T10:51:04.433Z,1.684
2022-10-18T10:53:05.180Z,0.842
2022-10-18T10:55:23.500Z,3.088
2022-10-18T10:57:07.842Z,1.825
2022-10-18T10:59:09.197Z,1.684
2022-10-18T11:01:11.224Z,6.739
2022-10-18T11:05:13.091Z,3.79
2022-10-18T11:07:14.376Z,0.702
2022-10-18T11:09:16.127Z,6.598
2022-10-18T11:11:19.241Z,4.773
2022-10-18T11:13:18.687Z,3.369
2022-10-18T11:15:19.574Z,2.948
2022-10-18T11:17:20.588Z,7.722
2022-10-18T11:19:23.997Z,5.054
2022-10-18T11:21:23.918Z,4.212
2022-10-18T11:23:24.849Z,6.177
2022-10-18T11:25:26.120Z,1.544
2022-10-18T11:27:27.762Z,2.246
2022-10-18T11:29:29.448Z,1.544
2022-10-18T11:31:30.861Z,6.458
2022-10-18T11:33:50.301Z,4.914
2022-10-18T11:35:33.833Z,1.263
2022-10-18T11:37:38.315Z,3.65
2022-10-18T11:39:36.357Z,3.088
2022-10-18T11:41:37.831Z,2.808
2022-10-18T11:45:40.960Z,0.28
2022-10-18T11:47:41.979Z,5.475
2022-10-18T11:49:43.395Z,1.825
2022-10-18T11:52:03.513Z,4.071
2022-10-18T11:53:49.598Z,3.229
2022-10-18T11:55:46.959Z,0.982
2022-10-18T11:57:47.953Z,0.421
2022-10-18T11:59:49.430Z,0.561
2022-10-18T12:01:50.902Z,1.123
2022-10-18T12:03:52.261Z,2.246
2022-10-18T12:05:53.496Z,0
2022-10-18T12:07:55.267Z,0.702
2022-10-18T12:09:56.643Z,0.14
2022-10-18T12:11:58.519Z,1.684
2022-10-18T12:14:00.148Z,3.088
2022-10-18T12:16:01.898Z,4.212
2022-10-18T12:18:03.111Z,3.088
2022-10-18T12:20:04.162Z,2.667
2022-10-18T12:22:05.943Z,2.667
2022-10-18T12:24:06.789Z,4.352
2022-10-18T12:26:08.480Z,5.054
2022-10-18T12:28:09.299Z,3.369
2022-10-18T12:30:10.497Z,3.65
2022-10-18T12:32:12.024Z,3.369
2022-10-18T12:34:13.384Z,3.65
2022-10-18T12:36:14.564Z,3.51
2022-10-18T12:38:15.702Z,1.404
2022-10-18T12:40:18.741Z,1.404
2022-10-18T12:42:18.404Z,1.825
2022-10-18T12:44:19.942Z,0
2022-10-18T12:46:21.526Z,3.229
2022-10-18T12:48:23.197Z,1.544
2022-10-18T12:50:24.450Z,1.825
2022-10-18T12:52:25.430Z,0.14
2022-10-18T12:54:26.856Z,0.28
2022-10-18T12:56:27.678Z,0
2022-10-18T12:58:28.736Z,0
2022-10-18T13:00:29.549Z,0.561
2022-10-18T13:02:31.061Z,4.352
2022-10-18T13:04:31.817Z,0
2022-10-18T13:08:33.916Z,1.684
2022-10-18T13:10:35.493Z,1.684
2022-10-18T13:12:36.672Z,1.263
2022-10-18T13:14:41.063Z,3.931
2022-10-18T13:16:39.499Z,2.527
2022-10-18T13:18:40.961Z,1.684
2022-10-18T13:20:42.155Z,0.561
2022-10-18T13:22:43.432Z,0
2022-10-18T13:24:44.794Z,1.965
2022-10-18T13:26:45.628Z,0
2022-10-18T13:28:46.900Z,0.28
2022-10-18T13:30:47.760Z,0
2022-10-18T13:32:49.016Z,0.842
2022-10-18T13:34:50.537Z,0
2022-10-18T13:36:51.623Z,0.28
2022-10-18T13:38:52.690Z,2.527
2022-10-18T13:40:53.732Z,4.071
2022-10-18T13:42:54.602Z,3.65
2022-10-18T13:44:55.988Z,3.931
2022-10-18T13:46:57.722Z,0.702
2022-10-18T13:51:00.037Z,1.544
2022-10-18T13:53:01.133Z,2.527
2022-10-18T13:55:02.038Z,0.14
2022-10-18T13:57:03.300Z,0.842
2022-10-18T13:59:14.014Z,0.14
2022-10-18T14:01:05.925Z,0.421
2022-10-18T14:03:10.106Z,1.825
2022-10-18T14:05:23.320Z,3.229
2022-10-18T14:07:09.441Z,0.561
2022-10-18T14:09:14.295Z,0.702
2022-10-18T14:11:11.612Z,1.263
2022-10-18T14:13:13.094Z,0.14
2022-10-18T14:15:14.689Z,0.421
2022-10-18T14:17:17.983Z,0
2022-10-18T14:19:17.641Z,0
2022-10-18T14:21:21.746Z,0
2022-10-18T14:23:20.950Z,0
2022-10-18T14:25:22.190Z,0
2022-10-18T14:27:23.226Z,0
2022-10-18T14:29:25.050Z,0
2022-10-18T14:31:26.657Z,0
2022-10-18T14:33:27.885Z,0
2022-10-18T14:35:32.847Z,0
2022-10-18T14:39:32.345Z,0
2022-10-18T14:41:34.058Z,0
2022-10-18T14:43:34.925Z,0
2022-10-18T14:45:36.292Z,0
2022-10-18T14:47:37.900Z,0
2022-10-18T14:49:39.147Z,0
2022-10-18T14:52:26.134Z,0
2022-10-18T14:54:26.259Z,0
2022-10-18T14:56:26.140Z,0
2022-10-18T14:58:27.118Z,0
2022-10-18T15:00:28.608Z,0
2022-10-18T15:02:30.492Z,0
2022-10-18T15:04:31.416Z,0
2022-10-18T15:06:32.344Z,0
2022-10-18T15:08:33.728Z,0
2022-10-18T15:10:35.198Z,0
2022-10-18T15:12:51.376Z,0
2022-10-18T15:16:39.903Z,0
2022-10-18T15:18:40.807Z,0
2022-10-18T15:20:42.889Z,0
2022-10-18T15:22:44.253Z,0
2022-10-18T15:24:45.103Z,0
2022-10-18T15:26:46.314Z,0
2022-10-18T15:28:48.167Z,0
2022-10-18T15:30:49.635Z,0
2022-10-18T15:32:51.284Z,0
2022-10-18T15:34:52.185Z,0
2022-10-18T15:36:53.289Z,0
2022-10-18T15:38:55.165Z,0
2022-10-18T15:42:57.600Z,0
2022-10-18T15:44:59.357Z,0
2022-10-18T15:47:00.267Z,0
2022-10-18T15:49:01.406Z,0
2022-10-18T15:51:02.368Z,0
2022-10-18T15:53:04.180Z,0
2022-10-18T15:55:06.009Z,0
2022-10-18T15:57:07.568Z,0
2022-10-18T15:59:08.595Z,0
2022-10-18T16:01:10.255Z,0
2022-10-18T16:03:11.383Z,0
2022-10-18T16:05:12.266Z,0
2022-10-18T16:07:13.605Z,0
2022-10-18T16:09:14.638Z,0
2022-10-18T16:11:16.037Z,0
2022-10-18T16:13:17.466Z,0
2022-10-18T16:15:19.293Z,0
2022-10-18T16:17:20.601Z,0
2022-10-18T16:19:22.332Z,0
2022-10-18T16:21:23.518Z,0
2022-10-18T16:23:24.810Z,0
2022-10-18T16:25:26.579Z,0
2022-10-18T16:27:28.324Z,0
2022-10-18T16:29:30.158Z,0
2022-10-18T16:31:31.511Z,0
2022-10-18T16:33:33.022Z,0
2022-10-18T16:35:34.528Z,0
2022-10-18T16:37:35.530Z,0
2022-10-18T16:39:37.113Z,0
2022-10-18T16:41:37.983Z,0
2022-10-18T16:43:39.474Z,0
2022-10-18T16:45:40.568Z,0
2022-10-18T16:47:42.214Z,0
2022-10-18T16:49:43.826Z,0
2022-10-18T16:51:44.791Z,0
2022-10-18T16:53:45.985Z,0
2022-10-18T16:57:49.234Z,0
2022-10-18T16:59:50.904Z,0
2022-10-18T17:01:51.861Z,0
2022-10-18T17:03:52.877Z,0
2022-10-18T17:05:54.002Z,0
2022-10-18T17:07:55.141Z,0
2022-10-18T17:09:56.107Z,0
2022-10-18T17:11:57.220Z,0
2022-10-18T17:13:58.205Z,0
2022-10-18T17:15:59.552Z,0
2022-10-18T17:18:01.037Z,0.561
2022-10-18T17:20:02.758Z,0.842
2022-10-18T17:22:03.722Z,0.842
2022-10-18T17:24:05.363Z,0.14
2022-10-18T17:26:15.192Z,0
2022-10-18T17:28:07.598Z,0
2022-10-18T17:30:08.726Z,0
2022-10-18T17:32:09.602Z,0
2022-10-18T17:36:12.364Z,0
2022-10-18T17:38:13.940Z,0
2022-10-18T17:40:14.831Z,0.28
2022-10-18T17:42:16.132Z,0
2022-10-18T17:44:17.252Z,0.14
2022-10-18T17:46:18.597Z,0
2022-10-18T17:48:20.256Z,0
2022-10-18T17:50:21.858Z,0.14
2022-10-18T17:52:22.737Z,0
2022-10-18T17:54:23.621Z,0
2022-10-18T17:56:25.169Z,0
2022-10-18T17:58:26.190Z,0
2022-10-18T18:00:27.977Z,0
2022-10-18T18:02:29.810Z,0
2022-10-18T18:04:30.755Z,0
2022-10-18T18:06:32.383Z,0
2022-10-18T18:08:33.793Z,0
2022-10-18T18:10:34.758Z,0
2022-10-18T18:12:35.925Z,0
2022-10-18T18:14:36.641Z,0.14
2022-10-18T18:16:38.221Z,0
2022-10-18T18:18:39.413Z,0
2022-10-18T18:20:40.740Z,0.28
2022-10-18T18:22:42.628Z,0.28
2022-10-18T18:24:43.874Z,0
2022-10-18T18:26:45.335Z,0
2022-10-18T18:28:46.515Z,0
2022-10-18T18:30:48.070Z,0
2022-10-18T18:32:49.178Z,0
2022-10-18T18:34:50.829Z,0
2022-10-18T18:38:55.422Z,0
2022-10-18T18:40:54.737Z,0
2022-10-18T18:44:57.197Z,0
2022-10-18T18:46:58.424Z,0
2022-10-18T18:49:00.060Z,0
2022-10-18T18:51:01.675Z,0
2022-10-18T18:53:03.175Z,0
2022-10-18T18:55:04.998Z,0.14
2022-10-18T18:57:06.478Z,0
2022-10-18T18:59:08.325Z,0
2022-10-18T19:01:10.021Z,0
2022-10-18T19:03:11.332Z,0
2022-10-18T19:05:12.852Z,0
2022-10-18T19:07:14.348Z,0
2022-10-18T19:09:16.148Z,0
2022-10-18T19:11:17.622Z,0
2022-10-18T19:13:19.063Z,0
2022-10-18T19:15:20.069Z,0
2022-10-18T19:17:21.679Z,0
2022-10-18T19:21:24.120Z,0
2022-10-18T19:25:27.050Z,0
2022-10-18T19:27:27.607Z,0
2022-10-18T19:31:30.505Z,0
2022-10-18T19:33:35.602Z,0
2022-10-18T19:35:33.375Z,0
2022-10-18T19:37:34.596Z,0
2022-10-18T19:39:36.139Z,0
2022-10-18T19:41:37.034Z,0
2022-10-18T19:43:38.901Z,0
2022-10-18T19:45:39.825Z,0
2022-10-18T19:47:41.573Z,0
2022-10-18T19:49:42.637Z,0
2022-10-18T19:51:43.560Z,0
2022-10-18T19:53:45.469Z,0
2022-10-18T19:55:46.695Z,0
2022-10-18T19:57:47.729Z,0
2022-10-18T19:59:48.926Z,0
2022-10-18T20:01:50.222Z,0
2022-10-18T20:03:51.840Z,0
2022-10-18T20:05:53.523Z,0
2022-10-18T20:07:54.479Z,0
2022-10-18T20:09:55.622Z,0
2022-10-18T20:11:56.703Z,0
2022-10-18T20:13:57.918Z,0
2022-10-18T20:15:59.289Z,0
2022-10-18T20:18:00.619Z,0
2022-10-18T20:22:03.994Z,0
2022-10-18T20:24:05.428Z,0
2022-10-18T20:26:07.119Z,0
2022-10-18T20:28:08.361Z,0
2022-10-18T20:30:11.296Z,0
2022-10-18T20:32:11.233Z,0
2022-10-18T20:34:12.167Z,0
2022-10-18T20:36:13.123Z,0
2022-10-18T20:38:14.285Z,0
2022-10-18T20:40:15.503Z,0
2022-10-18T20:42:16.997Z,0
2022-10-18T20:44:18.345Z,0
2022-10-18T20:46:19.499Z,0
2022-10-18T20:48:20.532Z,0
2022-10-18T20:50:22.057Z,0
2022-10-18T20:52:23.723Z,0
2022-10-18T20:54:25.329Z,0
2022-10-18T20:56:26.921Z,0
2022-10-18T20:58:28.236Z,0
2022-10-18T21:02:30.245Z,0
2022-10-18T21:04:31.303Z,0
2022-10-18T21:06:32.556Z,0
2022-10-18T21:08:33.891Z,0
2022-10-18T21:12:37.171Z,0
2022-10-18T21:14:38.308Z,0
2022-10-18T21:16:39.824Z,0
2022-10-18T21:18:41.296Z,0
2022-10-18T21:20:42.865Z,0
2022-10-18T21:22:44.243Z,0
2022-10-18T21:24:45.570Z,0
2022-10-18T21:26:46.593Z,0
2022-10-18T21:28:48.498Z,0
2022-10-18T21:30:50.097Z,0
2022-10-18T21:32:51.595Z,0
2022-10-18T21:34:53.096Z,0
2022-10-18T21:35:53.002Z,0
2022-10-18T21:37:54.559Z,0
2022-10-18T21:39:55.903Z,0
2022-10-18T21:41:57.647Z,0
2022-10-18T21:43:59.295Z,0
2022-10-18T21:46:00.546Z,0
2022-10-18T21:48:02.116Z,0
2022-10-18T21:50:03.177Z,0
2022-10-18T21:52:04.578Z,0
2022-10-18T21:54:06.298Z,0
2022-10-18T21:56:07.439Z,0
2022-10-18T21:58:08.388Z,0
2022-10-18T22:00:09.269Z,0
2022-10-18T22:02:10.779Z,0
2022-10-18T22:04:12.321Z,0
2022-10-18T22:06:13.482Z,0
2022-10-18T22:08:14.397Z,0
2022-10-18T22:10:16.195Z,0
2022-10-18T22:12:18.056Z,0
2022-10-18T22:14:19.740Z,0
2022-10-18T22:16:21.199Z,0
2022-10-18T22:18:23.042Z,0
2022-10-18T22:20:24.620Z,0
2022-10-18T22:24:27.770Z,0.702
2022-10-18T22:26:29.495Z,0.28
2022-10-18T22:28:30.864Z,1.404
2022-10-18T22:30:32.701Z,0.14
2022-10-18T22:32:33.748Z,0
2022-10-18T22:34:35.220Z,0
2022-10-18T22:36:36.814Z,0
2022-10-18T22:38:38.501Z,0
2022-10-18T22:40:40.243Z,0
2022-10-18T22:42:41.667Z,0.702
2022-10-18T22:44:42.581Z,0.421
2022-10-18T22:46:43.921Z,1.684
2022-10-18T22:48:45.049Z,0.28
2022-10-18T22:50:46.318Z,0
2022-10-18T22:52:48.982Z,0
2022-10-18T22:54:48.751Z,0
2022-10-18T22:56:49.894Z,0
2022-10-18T22:58:51.651Z,0
2022-10-18T23:00:53.455Z,0
2022-10-18T23:04:55.942Z,0
2022-10-18T23:06:57.117Z,0
2022-10-18T23:08:58.040Z,0
2022-10-18T23:10:59.364Z,0.28
2022-10-18T23:13:00.365Z,0
2022-10-18T23:15:01.285Z,0
2022-10-18T23:17:03.096Z,0
2022-10-18T23:19:04.483Z,0
2022-10-18T23:21:06.266Z,0
2022-10-18T23:23:07.924Z,0
2022-10-18T23:27:11.306Z,0.28
2022-10-18T23:29:12.612Z,1.684
2022-10-18T23:31:13.671Z,0.561
2022-10-18T23:33:14.896Z,0
2022-10-18T23:37:17.986Z,0
2022-10-18T23:39:19.078Z,0
2022-10-18T23:41:21.035Z,0
2022-10-18T23:43:22.649Z,0
2022-10-18T23:47:26.059Z,0
2022-10-18T23:49:27.386Z,0.702
2022-10-18T23:51:28.377Z,0.982
2022-10-18T23:53:29.489Z,0.421
2022-10-18T23:57:32.428Z,0
2022-10-18T23:59:34.068Z,0
